Decoded Metar for DAON (TLEMCEN in ALGERIA) (IATA:TLM) | Meteo·Mobile Aviation Weather
aviador You're here:

DAON Decoded Metar

TLEMCEN in ALGERIA
Report Time2018-09-19 15:00:00
UTC Time2018-09-19 15:22:36
Flight Rules vfr VFR
Wind340° at 12 kt
W.Decomp.*RWY 07: 0.2 kt HW 12 kt LCW
W.Rank340° ranks 2
Current wind is above 340° avg. (6.5)
Visibility9999 m
Phenomena:N/A
Clouds:Few 026 Hf
Few CB 030 Hf
Expected CloudBase > 4,000 ft AGL from Temp-Dew spread
CeilingNone
Temp30°C (ISA +17)
Dew Point20°C (55% RH)
Heat Index31.9°C
AAT29.4°C
QNH1018 hPa
Density Alt2,854 ft
Elevation810 ft
Report Wrong Elevation
Raw Report
DAON 191500Z 34012KT 9999 FEW026 FEW030CB 30/20 Q1018=

Extra information for DAON:More info

Metar Taf Metar & Taf Last 4 Metars F.Rules Stats Wind Profile Meteogram Temp Stats Airport Information Weather charts Add Link Nearby VenuesMetar ALERT Operation Metar Decoded Social comments